Time;durP1;ratioP1;P1;durP2;ratioP2;P2;SDS_P1;SDS_P2;PMS_P1;PMS_P2;Temp;Humidity;BMP_temperature;BMP_pressure;BME280_temperature;BME280_humidity;BME280_pressure;Samples;Min_cycle;Max_cycle;Signal;HPM_P1;HPM_P2
2021/12/20 00:01:09;;;;;;;7.68;5.55;;;;;;;;;;5015468;28;20341;-64
2021/12/20 00:03:36;;;;;;;5.05;4.38;;;;;;;;;;5001733;28;20433;-64
2021/12/20 00:06:03;;;;;;;5.82;4.63;;;;;;;;;;4995746;28;20046;-64
2021/12/20 00:08:31;;;;;;;4.80;4.40;;;;;;;;;;4995863;28;20097;-64
2021/12/20 00:10:58;;;;;;;5.70;5.15;;;;;;;;;;5014384;28;20137;-64
2021/12/20 00:13:24;;;;;;;5.40;4.05;;;;;;;;;;5014887;28;20042;-64
2021/12/20 00:15:51;;;;;;;4.22;3.83;;;;;;;;;;5014597;28;20483;-64
2021/12/20 00:18:18;;;;;;;7.35;4.65;;;;;;;;;;5015074;28;20042;-64
2021/12/20 00:20:45;;;;;;;5.70;4.88;;;;;;;;;;5014927;28;20045;-65
2021/12/20 00:23:12;;;;;;;4.57;4.18;;;;;;;;;;5014849;28;20042;-64
2021/12/20 00:25:39;;;;;;;5.70;4.30;;;;;;;;;;5014665;28;20480;-64
2021/12/20 00:28:06;;;;;;;5.15;4.55;;;;;;;;;;5014720;28;20072;-64
2021/12/20 00:30:33;;;;;;;4.50;4.00;;;;;;;;;;5014982;28;20046;-64
2021/12/20 00:33:00;;;;;;;4.18;3.78;;;;;;;;;;5014218;28;20049;-65
2021/12/20 00:35:27;;;;;;;4.68;4.28;;;;;;;;;;5014873;28;20096;-64
2021/12/20 00:40:39;;;;;;;4.43;3.83;;;;;;;;;;5014405;28;20053;-64
2021/12/20 00:43:06;;;;;;;5.28;3.97;;;;;;;;;;5014744;28;20091;-64
2021/12/20 00:45:37;;;;;;;4.07;3.47;;;;;;;;;;5014427;28;20050;-64
2021/12/20 00:48:05;;;;;;;5.65;4.10;;;;;;;;;;4975594;28;20047;-64
2021/12/20 00:50:40;;;;;;;3.97;3.58;;;;;;;;;;4998141;28;20446;-64
2021/12/20 00:53:08;;;;;;;3.90;3.50;;;;;;;;;;4995001;28;20046;-64
2021/12/20 00:55:35;;;;;;;4.65;4.05;;;;;;;;;;4994994;28;20042;-64
2021/12/20 00:58:03;;;;;;;3.83;3.45;;;;;;;;;;4994877;28;20548;-64
2021/12/20 01:00:34;;;;;;;4.10;3.72;;;;;;;;;;4994809;28;20833;-64
2021/12/20 01:03:03;;;;;;;8.02;4.35;;;;;;;;;;4995198;28;20074;-65
2021/12/20 01:05:30;;;;;;;5.38;3.95;;;;;;;;;;4994963;28;20038;-65
2021/12/20 01:08:00;;;;;;;5.50;4.85;;;;;;;;;;4994808;28;20046;-65
2021/12/20 01:10:29;;;;;;;4.78;4.00;;;;;;;;;;4995071;28;20064;-65
2021/12/20 01:12:59;;;;;;;6.00;5.00;;;;;;;;;;4995001;28;20371;-65
2021/12/20 01:15:34;;;;;;;7.35;4.50;;;;;;;;;;5006319;28;20092;-65
2021/12/20 01:18:02;;;;;;;5.03;4.22;;;;;;;;;;5013619;28;20046;-65
2021/12/20 01:20:29;;;;;;;5.30;4.80;;;;;;;;;;5013997;28;20091;-65
2021/12/20 01:22:57;;;;;;;7.55;5.50;;;;;;;;;;5014221;28;20200;-65
2021/12/20 01:25:24;;;;;;;8.18;4.93;;;;;;;;;;5013570;28;20067;-64
2021/12/20 01:27:52;;;;;;;7.97;6.22;;;;;;;;;;5013735;28;20481;-65
2021/12/20 01:30:22;;;;;;;6.18;5.50;;;;;;;;;;4982407;28;20042;-65
2021/12/20 01:32:50;;;;;;;8.18;5.15;;;;;;;;;;4993838;28;20109;-65
2021/12/20 01:35:18;;;;;;;6.45;5.65;;;;;;;;;;4994290;28;20050;-65
2021/12/20 01:37:45;;;;;;;6.53;5.50;;;;;;;;;;4994499;28;20039;-65
2021/12/20 01:40:14;;;;;;;6.40;4.90;;;;;;;;;;4994605;28;20173;-65
2021/12/20 01:42:42;;;;;;;52.00;28.77;;;;;;;;;;4994223;28;20383;-64
2021/12/20 01:45:18;;;;;;;12.32;8.23;;;;;;;;;;4994437;28;20049;-65
2021/12/20 01:47:49;;;;;;;6.05;5.40;;;;;;;;;;4993901;28;20046;-62
2021/12/20 01:50:24;;;;;;;6.55;5.25;;;;;;;;;;4994402;28;20039;-64
2021/12/20 01:52:52;;;;;;;8.85;5.95;;;;;;;;;;4993651;28;20585;-65
2021/12/20 01:55:21;;;;;;;6.93;5.78;;;;;;;;;;4994284;28;20042;-65
2021/12/20 01:57:48;;;;;;;5.70;4.68;;;;;;;;;;4993867;28;20042;-65
2021/12/20 02:00:21;;;;;;;7.13;4.95;;;;;;;;;;4993429;28;20505;-65
2021/12/20 02:02:54;;;;;;;6.07;4.78;;;;;;;;;;4994282;28;20081;-65
2021/12/20 02:05:26;;;;;;;8.13;4.90;;;;;;;;;;4993929;28;20073;-65
2021/12/20 02:08:04;;;;;;;6.75;5.53;;;;;;;;;;4993954;28;20046;-65
2021/12/20 02:10:33;;;;;;;6.45;5.85;;;;;;;;;;4993410;28;20052;-65
2021/12/20 02:13:01;;;;;;;6.25;5.43;;;;;;;;;;4977012;28;20039;-64
2021/12/20 02:15:28;;;;;;;6.60;5.35;;;;;;;;;;4993628;28;20049;-65
2021/12/20 02:17:55;;;;;;;7.80;5.47;;;;;;;;;;4993667;28;20512;-64
2021/12/20 02:20:30;;;;;;;9.10;6.00;;;;;;;;;;4993240;28;20048;-65
2021/12/20 02:22:59;;;;;;;6.45;5.72;;;;;;;;;;4976176;28;20049;-65
2021/12/20 02:25:28;;;;;;;7.90;6.10;;;;;;;;;;4991028;28;20450;-64
2021/12/20 02:28:03;;;;;;;10.95;6.75;;;;;;;;;;4993358;28;20053;-65
2021/12/20 02:38:21;;;;;;;9.88;5.57;;;;;;;;;;4992682;28;20038;-64
2021/12/20 02:41:03;;;;;;;7.78;6.32;;;;;;;;;;4992797;28;20046;-65
2021/12/20 02:43:34;;;;;;;10.05;6.20;;;;;;;;;;4993247;28;20042;-65
2021/12/20 02:46:04;;;;;;;8.23;6.30;;;;;;;;;;4993511;28;20069;-64
2021/12/20 02:48:30;;;;;;;7.57;6.30;;;;;;;;;;4992202;28;20077;-65
2021/12/20 02:50:57;;;;;;;13.00;6.53;;;;;;;;;;4993213;28;20046;-64
2021/12/20 02:53:24;;;;;;;8.52;7.00;;;;;;;;;;4992872;28;20043;-65
2021/12/20 02:55:51;;;;;;;7.50;6.72;;;;;;;;;;4993110;28;20052;-65
2021/12/20 02:58:18;;;;;;;11.05;7.60;;;;;;;;;;4992844;28;20096;-65
2021/12/20 03:00:45;;;;;;;9.55;6.65;;;;;;;;;;4993211;28;20053;-65
2021/12/20 03:03:12;;;;;;;12.90;7.50;;;;;;;;;;4993326;28;20081;-64
2021/12/20 03:05:39;;;;;;;7.57;6.57;;;;;;;;;;4993060;28;20057;-65
2021/12/20 03:08:06;;;;;;;9.38;6.70;;;;;;;;;;4993390;28;20105;-65
2021/12/20 03:10:34;;;;;;;11.30;9.73;;;;;;;;;;4992680;28;20057;-65
2021/12/20 03:13:01;;;;;;;12.25;9.20;;;;;;;;;;4992960;28;20047;-65
2021/12/20 03:15:28;;;;;;;12.00;8.50;;;;;;;;;;4992586;28;20038;-65
2021/12/20 03:17:58;;;;;;;9.88;7.93;;;;;;;;;;4993268;28;20382;-64
2021/12/20 03:20:25;;;;;;;10.90;8.10;;;;;;;;;;4992364;28;20057;-64
2021/12/20 03:22:52;;;;;;;16.48;11.27;;;;;;;;;;4992971;28;20108;-64
2021/12/20 03:25:18;;;;;;;13.77;10.30;;;;;;;;;;4975566;28;20444;-64
2021/12/20 03:27:45;;;;;;;13.52;10.63;;;;;;;;;;4992878;28;20046;-64
2021/12/20 03:30:13;;;;;;;14.50;9.90;;;;;;;;;;4992803;28;20097;-64
2021/12/20 03:32:41;;;;;;;15.50;10.38;;;;;;;;;;4992511;28;20508;-63
2021/12/20 03:35:09;;;;;;;13.45;9.85;;;;;;;;;;4992801;28;20058;-64
2021/12/20 03:37:40;;;;;;;14.15;11.23;;;;;;;;;;4992796;28;20070;-63
2021/12/20 03:40:08;;;;;;;12.38;10.13;;;;;;;;;;4994575;28;20046;-64
2021/12/20 03:42:36;;;;;;;14.70;11.45;;;;;;;;;;4995938;28;20042;-64
2021/12/20 03:45:03;;;;;;;15.70;11.35;;;;;;;;;;4996646;28;20218;-64
2021/12/20 03:47:30;;;;;;;13.27;10.82;;;;;;;;;;4995892;28;20040;-64
2021/12/20 03:49:57;;;;;;;14.27;12.38;;;;;;;;;;4996212;28;20050;-64
2021/12/20 03:52:24;;;;;;;18.35;13.05;;;;;;;;;;4996184;28;20050;-64
2021/12/20 03:54:51;;;;;;;23.63;15.80;;;;;;;;;;4996410;28;20039;-64
2021/12/20 03:57:18;;;;;;;23.98;15.38;;;;;;;;;;4996256;28;20105;-64
2021/12/20 03:59:47;;;;;;;38.47;23.20;;;;;;;;;;4996056;28;20134;-64
2021/12/20 04:02:18;;;;;;;26.15;17.65;;;;;;;;;;4996143;28;20043;-64
2021/12/20 04:04:46;;;;;;;26.73;16.75;;;;;;;;;;4995954;28;20046;-63
2021/12/20 04:07:12;;;;;;;19.00;14.00;;;;;;;;;;4996212;28;20464;-64
2021/12/20 04:09:39;;;;;;;15.32;10.95;;;;;;;;;;4995547;28;20050;-64
2021/12/20 04:12:07;;;;;;;36.08;18.98;;;;;;;;;;4982722;28;20050;-64
2021/12/20 04:14:34;;;;;;;28.05;18.73;;;;;;;;;;4987237;28;20042;-64
2021/12/20 04:17:01;;;;;;;18.90;13.88;;;;;;;;;;4999977;28;20042;-64
2021/12/20 04:19:27;;;;;;;26.15;17.27;;;;;;;;;;4995981;28;20073;-65
2021/12/20 04:21:54;;;;;;;19.52;14.55;;;;;;;;;;4995897;28;20079;-64
2021/12/20 04:24:21;;;;;;;18.67;14.45;;;;;;;;;;4996089;28;20046;-64
2021/12/20 04:26:48;;;;;;;22.88;14.88;;;;;;;;;;4995566;28;20046;-64
2021/12/20 04:29:15;;;;;;;20.58;14.10;;;;;;;;;;4995433;28;20489;-64
2021/12/20 04:31:42;;;;;;;30.55;21.30;;;;;;;;;;4995173;28;20050;-64
2021/12/20 04:34:10;;;;;;;26.98;19.65;;;;;;;;;;4995199;28;20054;-63
2021/12/20 04:36:37;;;;;;;17.60;13.40;;;;;;;;;;5008576;28;20046;-64
2021/12/20 04:39:07;;;;;;;14.05;11.35;;;;;;;;;;5014673;28;20099;-64
2021/12/20 04:41:34;;;;;;;12.63;10.15;;;;;;;;;;5014487;28;20061;-64
2021/12/20 04:44:01;;;;;;;15.18;10.93;;;;;;;;;;5014820;28;20125;-64
2021/12/20 04:46:28;;;;;;;15.65;12.35;;;;;;;;;;5014575;28;20095;-64
2021/12/20 04:48:55;;;;;;;16.25;11.43;;;;;;;;;;5014406;28;20500;-64
2021/12/20 04:51:22;;;;;;;20.27;12.32;;;;;;;;;;5013298;28;20042;-64
2021/12/20 04:53:49;;;;;;;15.65;11.85;;;;;;;;;;5014428;28;20045;-65
2021/12/20 04:56:16;;;;;;;12.80;10.52;;;;;;;;;;5013704;28;20554;-64
2021/12/20 04:58:43;;;;;;;13.65;11.07;;;;;;;;;;5014300;28;20549;-65
2021/12/20 05:01:10;;;;;;;11.75;9.65;;;;;;;;;;5014082;28;20057;-65
2021/12/20 05:03:37;;;;;;;14.32;10.90;;;;;;;;;;5014126;28;20108;-65
2021/12/20 05:06:04;;;;;;;13.35;10.98;;;;;;;;;;5014335;28;20049;-65
2021/12/20 05:08:36;;;;;;;11.98;10.18;;;;;;;;;;5014122;28;20069;-64
2021/12/20 05:11:04;;;;;;;14.75;9.95;;;;;;;;;;5014368;28;20113;-64
2021/12/20 05:13:32;;;;;;;15.18;10.23;;;;;;;;;;5014273;28;20057;-64
2021/12/20 05:15:59;;;;;;;15.23;12.38;;;;;;;;;;5013866;28;20489;-63
2021/12/20 05:18:25;;;;;;;17.27;10.00;;;;;;;;;;5014186;28;20056;-64
2021/12/20 05:20:52;;;;;;;12.90;9.50;;;;;;;;;;5013617;28;20045;-64
2021/12/20 05:23:19;;;;;;;11.90;9.25;;;;;;;;;;5014073;28;20037;-65
2021/12/20 05:25:46;;;;;;;10.35;9.25;;;;;;;;;;5013611;28;20115;-64
2021/12/20 05:28:13;;;;;;;13.18;10.25;;;;;;;;;;5014091;28;20042;-64
2021/12/20 05:30:40;;;;;;;16.88;9.90;;;;;;;;;;5013281;28;20090;-64
2021/12/20 05:33:07;;;;;;;13.32;10.68;;;;;;;;;;5013601;28;20046;-65
2021/12/20 05:35:35;;;;;;;11.60;8.60;;;;;;;;;;5013374;28;20050;-65
2021/12/20 05:38:02;;;;;;;8.57;7.35;;;;;;;;;;5014115;28;20077;-63
2021/12/20 05:40:29;;;;;;;13.05;8.85;;;;;;;;;;5011715;28;20049;-64
2021/12/20 05:42:56;;;;;;;18.55;10.45;;;;;;;;;;5013894;28;20049;-62
2021/12/20 05:45:23;;;;;;;14.85;11.20;;;;;;;;;;5013289;28;20041;-63
2021/12/20 05:47:50;;;;;;;10.75;9.13;;;;;;;;;;5013514;28;20042;-64
2021/12/20 05:50:19;;;;;;;8.20;7.00;;;;;;;;;;5013613;28;20042;-63
2021/12/20 05:52:46;;;;;;;8.68;7.78;;;;;;;;;;5012956;28;20052;-64
2021/12/20 05:55:14;;;;;;;22.27;16.88;;;;;;;;;;5013504;28;20492;-64
2021/12/20 05:58:06;;;;;;;20.25;16.52;;;;;;;;;;5014311;28;20053;-64
2021/12/20 06:00:33;;;;;;;17.95;15.07;;;;;;;;;;4972548;28;20142;-79
2021/12/20 06:03:00;;;;;;;21.85;16.63;;;;;;;;;;4973877;28;20501;-81
2021/12/20 06:05:27;;;;;;;20.02;15.93;;;;;;;;;;4974564;28;20050;-82
2021/12/20 06:07:56;;;;;;;21.00;17.23;;;;;;;;;;4974386;28;20046;-79
2021/12/20 06:10:23;;;;;;;18.48;13.65;;;;;;;;;;4974305;28;20035;-78
2021/12/20 06:12:50;;;;;;;17.08;15.25;;;;;;;;;;4974363;28;20047;-78
2021/12/20 06:15:17;;;;;;;22.90;17.42;;;;;;;;;;4972913;28;20047;-78
2021/12/20 06:17:44;;;;;;;25.10;17.20;;;;;;;;;;4973987;28;20051;-75
2021/12/20 06:20:12;;;;;;;22.27;17.88;;;;;;;;;;4973123;28;20125;-75
2021/12/20 06:22:39;;;;;;;26.77;18.05;;;;;;;;;;4973568;28;20050;-80
2021/12/20 06:25:07;;;;;;;25.80;21.20;;;;;;;;;;4973521;28;20050;-71
2021/12/20 06:27:34;;;;;;;33.45;23.13;;;;;;;;;;4973603;28;20493;-77
2021/12/20 06:30:03;;;;;;;27.95;23.48;;;;;;;;;;4973937;28;20046;-78
2021/12/20 06:32:30;;;;;;;38.90;28.05;;;;;;;;;;4973750;28;20062;-77
2021/12/20 06:34:58;;;;;;;37.42;28.92;;;;;;;;;;4973628;28;20057;-77
2021/12/20 06:37:25;;;;;;;37.40;30.05;;;;;;;;;;4973405;28;20055;-77
2021/12/20 06:39:52;;;;;;;32.40;28.30;;;;;;;;;;4972466;28;20050;-77
2021/12/20 06:42:19;;;;;;;38.47;28.95;;;;;;;;;;4971445;28;20390;-78
2021/12/20 06:44:46;;;;;;;37.55;29.00;;;;;;;;;;4971360;28;20097;-77
2021/12/20 06:47:13;;;;;;;40.40;27.63;;;;;;;;;;4971006;28;20051;-80
2021/12/20 06:49:40;;;;;;;35.58;29.42;;;;;;;;;;4963991;28;20150;-83
2021/12/20 06:52:07;;;;;;;30.55;26.65;;;;;;;;;;4949204;28;20039;-72
2021/12/20 06:54:34;;;;;;;38.70;27.45;;;;;;;;;;4951702;28;20380;-75
2021/12/20 06:57:02;;;;;;;32.95;28.30;;;;;;;;;;4949462;28;20052;-77
2021/12/20 06:59:29;;;;;;;36.67;27.70;;;;;;;;;;4952732;28;20062;-72
2021/12/20 07:01:56;;;;;;;35.70;30.02;;;;;;;;;;4952232;28;20553;-67
2021/12/20 07:04:23;;;;;;;37.42;30.23;;;;;;;;;;4950380;28;20047;-72
2021/12/20 07:06:50;;;;;;;39.78;31.50;;;;;;;;;;4951004;28;20110;-69
2021/12/20 07:09:17;;;;;;;34.28;26.92;;;;;;;;;;4950522;28;20051;-67
2021/12/20 07:11:44;;;;;;;36.05;30.42;;;;;;;;;;4950850;28;20567;-68
2021/12/20 07:14:11;;;;;;;33.95;27.63;;;;;;;;;;4938338;28;20058;-73
2021/12/20 07:16:40;;;;;;;43.58;30.45;;;;;;;;;;4955539;28;20047;-72
2021/12/20 07:19:07;;;;;;;60.33;48.58;;;;;;;;;;4953914;28;20043;-73
2021/12/20 07:21:34;;;;;;;39.22;29.60;;;;;;;;;;4954493;28;20098;-72
2021/12/20 07:24:01;;;;;;;37.33;28.80;;;;;;;;;;4956012;28;20505;-73
2021/12/20 07:26:30;;;;;;;42.42;29.55;;;;;;;;;;4956814;28;20508;-72
2021/12/20 07:28:57;;;;;;;45.60;31.85;;;;;;;;;;4953480;28;20131;-73
2021/12/20 07:31:24;;;;;;;41.80;32.42;;;;;;;;;;4954885;28;20495;-76
2021/12/20 07:33:50;;;;;;;70.05;44.88;;;;;;;;;;4953103;28;20062;-70
2021/12/20 07:36:20;;;;;;;48.97;36.20;;;;;;;;;;4954400;28;20051;-67
2021/12/20 07:38:48;;;;;;;36.25;28.77;;;;;;;;;;4953842;28;20066;-65
2021/12/20 07:41:19;;;;;;;40.45;33.53;;;;;;;;;;4952031;28;20516;-72
2021/12/20 07:43:49;;;;;;;36.25;30.35;;;;;;;;;;4956380;28;20050;-71
2021/12/20 07:46:18;;;;;;;36.95;29.80;;;;;;;;;;4938825;29;20035;-70
2021/12/20 07:48:45;;;;;;;32.70;28.38;;;;;;;;;;4955695;28;20047;-78
2021/12/20 07:51:12;;;;;;;37.60;31.63;;;;;;;;;;4952469;28;20502;-78
2021/12/20 07:53:39;;;;;;;57.25;44.15;;;;;;;;;;4952937;28;20039;-71
2021/12/20 07:56:06;;;;;;;54.53;43.63;;;;;;;;;;4955664;28;20047;-71
2021/12/20 07:58:33;;;;;;;44.45;38.05;;;;;;;;;;4952124;28;20052;-69
2021/12/20 08:01:01;;;;;;;34.30;29.90;;;;;;;;;;4952048;28;20117;-73
2021/12/20 08:03:29;;;;;;;41.70;33.10;;;;;;;;;;4952246;28;20069;-72
2021/12/20 08:05:56;;;;;;;35.22;29.02;;;;;;;;;;4955723;28;20711;-73
2021/12/20 08:08:23;;;;;;;38.33;30.10;;;;;;;;;;4950156;28;20066;-76
2021/12/20 08:10:50;;;;;;;39.60;30.38;;;;;;;;;;4948706;28;20058;-71
2021/12/20 08:13:17;;;;;;;38.72;28.02;;;;;;;;;;4953887;28;20070;-70
2021/12/20 08:15:43;;;;;;;35.22;28.63;;;;;;;;;;4952630;28;20047;-75
2021/12/20 08:18:11;;;;;;;33.90;29.55;;;;;;;;;;4953468;28;20054;-74
2021/12/20 08:20:38;;;;;;;37.22;30.67;;;;;;;;;;4953550;28;20046;-76
2021/12/20 08:23:04;;;;;;;36.53;27.70;;;;;;;;;;4953964;28;20051;-81
2021/12/20 08:25:31;;;;;;;62.78;29.13;;;;;;;;;;4953325;28;20055;-77
2021/12/20 08:27:58;;;;;;;37.70;28.77;;;;;;;;;;4953015;28;20490;-79
2021/12/20 08:30:26;;;;;;;39.08;29.70;;;;;;;;;;4952141;28;20598;-74
2021/12/20 08:32:53;;;;;;;42.83;27.67;;;;;;;;;;4953705;28;20102;-75
2021/12/20 08:35:21;;;;;;;36.25;26.77;;;;;;;;;;4958060;28;20458;-73
2021/12/20 08:37:48;;;;;;;31.50;26.33;;;;;;;;;;4953076;28;20047;-73
2021/12/20 08:40:17;;;;;;;37.60;29.98;;;;;;;;;;4955052;28;20035;-73
2021/12/20 08:42:44;;;;;;;32.45;28.05;;;;;;;;;;4953757;28;20435;-74
2021/12/20 08:45:14;;;;;;;33.35;26.80;;;;;;;;;;4953183;28;20490;-71
2021/12/20 08:47:43;;;;;;;36.63;29.38;;;;;;;;;;4953384;28;20090;-75
2021/12/20 08:50:14;;;;;;;36.60;29.90;;;;;;;;;;4953345;28;20040;-78
2021/12/20 08:52:41;;;;;;;37.63;29.83;;;;;;;;;;4951106;28;20054;-73
2021/12/20 08:55:09;;;;;;;37.00;27.55;;;;;;;;;;4956270;28;20085;-72
2021/12/20 08:57:36;;;;;;;42.13;28.65;;;;;;;;;;4953433;28;20043;-73
2021/12/20 09:00:07;;;;;;;35.25;27.83;;;;;;;;;;4954215;28;20504;-79
2021/12/20 09:02:34;;;;;;;37.78;27.35;;;;;;;;;;4952532;28;20098;-75
2021/12/20 09:05:03;;;;;;;34.58;27.88;;;;;;;;;;4952868;28;20040;-74
2021/12/20 09:07:29;;;;;;;36.13;30.42;;;;;;;;;;4953564;28;20043;-71
2021/12/20 09:09:56;;;;;;;34.72;28.08;;;;;;;;;;4956336;28;20510;-72
2021/12/20 09:12:23;;;;;;;41.10;29.75;;;;;;;;;;4952860;28;20505;-71
2021/12/20 09:14:50;;;;;;;40.15;28.58;;;;;;;;;;4951369;28;20509;-72
2021/12/20 09:17:18;;;;;;;31.85;28.65;;;;;;;;;;4952950;28;20046;-69
2021/12/20 09:19:44;;;;;;;40.30;32.53;;;;;;;;;;4958703;28;20497;-70
2021/12/20 09:22:11;;;;;;;38.55;28.60;;;;;;;;;;4957699;28;20047;-71
2021/12/20 09:24:40;;;;;;;39.53;29.48;;;;;;;;;;4952207;28;20051;-77
2021/12/20 09:27:08;;;;;;;36.40;30.48;;;;;;;;;;4950606;28;20062;-74
2021/12/20 09:29:35;;;;;;;45.63;31.02;;;;;;;;;;4948057;28;20584;-73
2021/12/20 09:32:04;;;;;;;40.25;28.02;;;;;;;;;;4950875;28;20054;-70
2021/12/20 09:34:31;;;;;;;39.65;30.23;;;;;;;;;;4952688;28;20035;-80
2021/12/20 09:37:04;;;;;;;38.80;30.02;;;;;;;;;;4961547;28;20101;-77
2021/12/20 09:39:31;;;;;;;43.80;29.80;;;;;;;;;;4973114;28;20047;-77
2021/12/20 09:42:01;;;;;;;37.28;28.60;;;;;;;;;;4952878;28;20102;-72
2021/12/20 09:44:29;;;;;;;34.22;28.83;;;;;;;;;;4948421;28;20130;-73
2021/12/20 09:46:59;;;;;;;36.13;27.58;;;;;;;;;;4952319;28;20075;-77
2021/12/20 09:49:25;;;;;;;34.70;28.48;;;;;;;;;;4954827;28;20043;-76
2021/12/20 09:51:54;;;;;;;37.83;29.23;;;;;;;;;;4934762;29;20075;-73
2021/12/20 09:54:21;;;;;;;37.85;30.23;;;;;;;;;;4952033;28;20059;-71
2021/12/20 09:56:52;;;;;;;35.63;29.45;;;;;;;;;;4970948;28;20784;-73
2021/12/20 09:59:20;;;;;;;36.45;28.90;;;;;;;;;;4971929;28;20051;-72
2021/12/20 10:01:49;;;;;;;36.78;31.50;;;;;;;;;;4967056;28;20039;-68
2021/12/20 10:04:16;;;;;;;51.78;30.83;;;;;;;;;;4971743;28;20401;-70
2021/12/20 10:06:43;;;;;;;40.17;31.05;;;;;;;;;;4968050;28;20097;-69
2021/12/20 10:09:13;;;;;;;40.70;31.35;;;;;;;;;;4972092;28;20042;-69
2021/12/20 10:11:41;;;;;;;38.35;31.90;;;;;;;;;;4972537;28;20446;-71
2021/12/20 10:14:13;;;;;;;39.70;31.95;;;;;;;;;;4972407;28;20047;-71
2021/12/20 10:16:42;;;;;;;38.10;32.03;;;;;;;;;;4967862;28;20043;-69
2021/12/20 10:19:29;;;;;;;43.25;32.67;;;;;;;;;;4953835;28;20057;-70
2021/12/20 10:21:58;;;;;;;43.20;31.02;;;;;;;;;;4953432;28;20461;-73
2021/12/20 10:24:30;;;;;;;41.28;33.05;;;;;;;;;;4954023;28;20114;-70
2021/12/20 10:26:57;;;;;;;36.72;31.30;;;;;;;;;;4953873;28;20048;-71
2021/12/20 10:29:24;;;;;;;44.28;31.60;;;;;;;;;;4954152;28;20098;-70
2021/12/20 10:31:52;;;;;;;35.35;29.02;;;;;;;;;;4946562;28;20055;-73
2021/12/20 10:34:34;;;;;;;38.95;29.30;;;;;;;;;;4969176;28;20043;-74
2021/12/20 10:37:04;;;;;;;36.90;30.73;;;;;;;;;;4965615;28;20054;-74
2021/12/20 10:39:45;;;;;;;40.67;31.80;;;;;;;;;;4954110;28;20047;-73
2021/12/20 10:42:14;;;;;;;45.40;32.00;;;;;;;;;;4953724;28;20541;-76
2021/12/20 10:44:41;;;;;;;54.60;30.98;;;;;;;;;;4954041;28;20047;-73
2021/12/20 10:47:08;;;;;;;41.08;30.52;;;;;;;;;;4941647;28;20189;-70
2021/12/20 10:49:35;;;;;;;41.03;32.15;;;;;;;;;;4957970;28;20465;-71
2021/12/20 10:52:02;;;;;;;40.33;31.15;;;;;;;;;;4976533;28;20039;-74
2021/12/20 10:54:32;;;;;;;40.88;29.50;;;;;;;;;;4960240;28;20113;-73
2021/12/20 10:57:05;;;;;;;35.85;30.40;;;;;;;;;;4957813;28;20054;-77
2021/12/20 10:59:35;;;;;;;40.13;31.20;;;;;;;;;;4957420;28;20055;-77
2021/12/20 11:05:00;;;;;;;44.05;35.95;;;;;;;;;;4975843;28;20047;-75
2021/12/20 11:10:01;;;;;;;41.22;33.60;;;;;;;;;;4967488;28;20054;-76
2021/12/20 11:12:31;;;;;;;41.72;34.10;;;;;;;;;;4957730;28;20055;-73
2021/12/20 11:15:10;;;;;;;50.45;39.10;;;;;;;;;;4956886;28;20395;-73
2021/12/20 11:17:42;;;;;;;41.22;34.88;;;;;;;;;;4957242;28;20453;-72
2021/12/20 11:20:10;;;;;;;50.35;36.88;;;;;;;;;;4957498;28;20105;-78
2021/12/20 11:22:36;;;;;;;48.20;38.63;;;;;;;;;;4957335;28;20046;-77
2021/12/20 11:25:11;;;;;;;45.97;35.55;;;;;;;;;;4957574;28;20455;-71
2021/12/20 11:27:46;;;;;;;52.03;36.33;;;;;;;;;;4950088;28;20054;-69
2021/12/20 11:30:19;;;;;;;42.85;36.13;;;;;;;;;;4957767;28;20047;-76
2021/12/20 11:32:47;;;;;;;42.42;35.47;;;;;;;;;;4960874;28;20059;-73
2021/12/20 11:35:16;;;;;;;41.25;34.80;;;;;;;;;;4971005;28;20047;-75
2021/12/20 11:37:43;;;;;;;43.63;34.58;;;;;;;;;;4968439;28;20043;-72
2021/12/20 11:40:12;;;;;;;45.20;37.20;;;;;;;;;;4975994;28;20090;-75
2021/12/20 11:42:40;;;;;;;50.20;37.50;;;;;;;;;;4974698;28;20094;-74
2021/12/20 11:45:08;;;;;;;50.33;36.85;;;;;;;;;;4964242;28;20102;-75
2021/12/20 11:47:50;;;;;;;44.65;38.00;;;;;;;;;;4955863;28;20130;-75
2021/12/20 11:50:20;;;;;;;53.30;41.10;;;;;;;;;;4955044;28;20573;-74
2021/12/20 11:52:49;;;;;;;49.78;38.80;;;;;;;;;;4955313;28;20383;-72
2021/12/20 11:55:21;;;;;;;56.53;40.60;;;;;;;;;;4954503;28;20659;-75
2021/12/20 11:57:54;;;;;;;49.15;38.50;;;;;;;;;;4954314;28;20054;-70
2021/12/20 12:00:36;;;;;;;46.28;38.35;;;;;;;;;;4959527;28;20438;-70
2021/12/20 12:03:05;;;;;;;45.75;37.35;;;;;;;;;;4948138;28;20047;-70
2021/12/20 12:05:40;;;;;;;42.42;37.47;;;;;;;;;;4954686;28;20043;-71
2021/12/20 12:08:25;;;;;;;49.85;38.35;;;;;;;;;;4950587;28;20054;-71
2021/12/20 12:11:08;;;;;;;45.20;38.97;;;;;;;;;;4953935;28;20039;-73
2021/12/20 12:13:49;;;;;;;47.63;36.78;;;;;;;;;;4956634;28;20502;-70
2021/12/20 12:16:30;;;;;;;47.45;36.47;;;;;;;;;;4956791;28;20386;-72
2021/12/20 12:18:58;;;;;;;49.63;35.92;;;;;;;;;;4956859;28;20048;-74
2021/12/20 12:21:41;;;;;;;44.13;36.95;;;;;;;;;;4955612;28;20043;-79
2021/12/20 12:24:44;;;;;;;43.80;35.65;;;;;;;;;;4954960;28;20379;-73
2021/12/20 12:27:26;;;;;;;48.90;36.35;;;;;;;;;;4957605;28;20047;-71
2021/12/20 12:30:16;;;;;;;39.08;31.38;;;;;;;;;;4955534;28;20047;-72
2021/12/20 12:32:46;;;;;;;45.60;33.17;;;;;;;;;;4946141;28;20098;-76
2021/12/20 12:35:39;;;;;;;47.33;33.75;;;;;;;;;;4955819;28;20043;-73
2021/12/20 12:38:18;;;;;;;44.55;32.70;;;;;;;;;;4957853;28;20127;-76
2021/12/20 12:40:49;;;;;;;39.80;31.58;;;;;;;;;;4955459;28;20067;-75
2021/12/20 12:43:18;;;;;;;40.88;29.95;;;;;;;;;;4951240;28;20132;-78
2021/12/20 12:45:48;;;;;;;41.58;31.83;;;;;;;;;;4960540;28;20063;-77
2021/12/20 12:48:38;;;;;;;46.03;32.33;;;;;;;;;;4957676;28;20090;-79
2021/12/20 12:51:20;;;;;;;43.05;33.22;;;;;;;;;;4960979;28;20098;-74
2021/12/20 12:53:53;;;;;;;43.10;34.97;;;;;;;;;;4960978;28;20058;-75
2021/12/20 12:56:25;;;;;;;41.28;31.90;;;;;;;;;;4962375;28;20062;-74
2021/12/20 12:59:11;;;;;;;46.95;34.67;;;;;;;;;;4957097;28;20518;-73
2021/12/20 13:01:41;;;;;;;41.47;30.92;;;;;;;;;;4961900;28;20054;-74
2021/12/20 13:04:08;;;;;;;42.33;32.53;;;;;;;;;;4968024;28;20498;-68
2021/12/20 13:06:35;;;;;;;41.00;30.95;;;;;;;;;;4957674;28;20043;-71
2021/12/20 13:09:03;;;;;;;42.15;30.80;;;;;;;;;;4958479;28;20043;-75
2021/12/20 13:11:31;;;;;;;44.85;29.73;;;;;;;;;;4958336;28;20075;-71
2021/12/20 13:14:06;;;;;;;45.90;29.17;;;;;;;;;;4961552;28;20039;-77
2021/12/20 13:16:36;;;;;;;46.80;30.90;;;;;;;;;;4957339;28;20094;-72
2021/12/20 13:19:05;;;;;;;50.58;34.33;;;;;;;;;;4955247;28;20043;-73
2021/12/20 13:21:54;;;;;;;55.40;35.50;;;;;;;;;;4956847;28;20054;-70
2021/12/20 13:24:21;;;;;;;59.33;38.50;;;;;;;;;;4957984;28;20517;-68
2021/12/20 13:26:48;;;;;;;74.70;41.72;;;;;;;;;;4947192;28;20078;-71
2021/12/20 13:29:19;;;;;;;52.85;37.20;;;;;;;;;;4959994;28;20047;-77
2021/12/20 13:31:46;;;;;;;52.97;37.20;;;;;;;;;;4953870;28;20039;-70
2021/12/20 13:34:14;;;;;;;56.45;37.65;;;;;;;;;;4958101;28;20047;-69
2021/12/20 13:36:50;;;;;;;51.45;36.70;;;;;;;;;;4962847;28;20055;-69
2021/12/20 13:39:17;;;;;;;51.17;34.42;;;;;;;;;;4944207;28;20047;-75
2021/12/20 13:41:44;;;;;;;50.65;35.53;;;;;;;;;;4955250;28;20640;-76
2021/12/20 13:44:14;;;;;;;52.65;34.08;;;;;;;;;;4954318;28;20054;-70
2021/12/20 13:46:47;;;;;;;56.95;37.13;;;;;;;;;;4955187;28;20046;-64
2021/12/20 13:49:17;;;;;;;54.72;37.47;;;;;;;;;;4955753;28;20044;-65
2021/12/20 13:52:02;;;;;;;58.33;35.47;;;;;;;;;;4953328;28;20051;-70
2021/12/20 13:54:29;;;;;;;;;;;;;;;;;;4955150;28;20043;-73
2021/12/20 13:56:57;;;;;;;49.20;32.00;;;;;;;;;;4956541;28;19930;-70
2021/12/20 13:59:45;;;;;;;52.00;34.55;;;;;;;;;;4938689;28;20680;-68
2021/12/20 14:02:14;;;;;;;51.28;33.58;;;;;;;;;;4939978;28;20710;-65
2021/12/20 14:04:44;;;;;;;61.72;37.40;;;;;;;;;;4951730;28;20046;-67
2021/12/20 14:07:25;;;;;;;57.03;35.00;;;;;;;;;;4955761;28;20054;-70
2021/12/20 14:10:10;;;;;;;61.40;33.22;;;;;;;;;;4957103;28;20497;-66
2021/12/20 14:12:58;;;;;;;56.38;33.58;;;;;;;;;;4957434;28;20039;-68
2021/12/20 14:15:40;;;;;;;56.08;34.85;;;;;;;;;;4954699;28;20746;-68
2021/12/20 14:18:15;;;;;;;58.63;35.08;;;;;;;;;;4963031;28;20043;-71
2021/12/20 14:20:49;;;;;;;75.40;36.28;;;;;;;;;;4947804;28;20082;-68
2021/12/20 14:24:01;;;;;;;58.47;36.83;;;;;;;;;;4952747;28;20051;-70
2021/12/20 14:26:30;;;;;;;69.15;42.35;;;;;;;;;;4900413;28;20059;-65
2021/12/20 14:29:07;;;;;;;61.17;40.97;;;;;;;;;;4953301;28;20043;-68
2021/12/20 14:31:53;;;;;;;73.45;45.53;;;;;;;;;;4952558;28;20130;-65
2021/12/20 14:34:30;;;;;;;74.15;44.42;;;;;;;;;;4952755;28;20043;-72
2021/12/20 14:37:07;;;;;;;69.78;42.63;;;;;;;;;;4950512;28;20039;-65
2021/12/20 14:39:42;;;;;;;63.95;41.20;;;;;;;;;;4956847;28;20044;-69
2021/12/20 14:42:09;;;;;;;74.35;48.25;;;;;;;;;;4956090;28;20070;-70
2021/12/20 14:44:51;;;;;;;80.90;46.88;;;;;;;;;;4955117;28;20047;-68
2021/12/20 14:47:32;;;;;;;109.15;59.70;;;;;;;;;;4951376;28;20051;-69
2021/12/20 14:50:05;;;;;;;81.85;51.30;;;;;;;;;;4950464;28;20050;-67
2021/12/20 14:52:34;;;;;;;77.40;49.13;;;;;;;;;;4943196;28;20071;-72
2021/12/20 14:55:10;;;;;;;81.57;48.55;;;;;;;;;;4960299;28;20043;-66